createdAt,value
2022-09-23T00:01:05.038Z,3.47
2022-09-23T00:03:32.946Z,3.49
2022-09-23T00:06:01.860Z,3.44
2022-09-23T00:08:29.469Z,3.41
2022-09-23T00:10:56.410Z,3.39
2022-09-23T00:13:24.715Z,3.40
2022-09-23T00:15:52.022Z,3.39
2022-09-23T00:18:20.559Z,3.37
2022-09-23T00:20:47.283Z,3.37
2022-09-23T00:23:13.805Z,3.36
2022-09-23T00:25:40.198Z,3.36
2022-09-23T00:28:06.537Z,3.33
2022-09-23T00:30:32.998Z,3.30
2022-09-23T00:33:00.234Z,3.29
2022-09-23T00:35:26.790Z,3.29
2022-09-23T00:37:53.194Z,3.36
2022-09-23T00:40:19.607Z,3.32
2022-09-23T00:42:51.180Z,3.29
2022-09-23T00:45:17.784Z,3.27
2022-09-23T00:48:02.298Z,3.29
2022-09-23T00:50:36.107Z,3.26
2022-09-23T00:53:09.727Z,3.27
2022-09-23T00:55:49.187Z,3.24
2022-09-23T00:58:18.993Z,3.27
2022-09-23T01:00:46.788Z,3.26
2022-09-23T01:03:14.464Z,3.23
2022-09-23T01:05:42.383Z,3.22
2022-09-23T01:08:11.906Z,3.19
2022-09-23T01:10:50.451Z,3.16
2022-09-23T01:13:36.575Z,3.18
2022-09-23T01:16:16.464Z,3.16
2022-09-23T01:19:09.348Z,3.15
2022-09-23T01:21:49.788Z,3.15
2022-09-23T01:24:25.003Z,3.13
2022-09-23T01:27:28.920Z,3.13
2022-09-23T01:30:32.880Z,3.08
2022-09-23T01:33:08.768Z,3.05
2022-09-23T01:36:10.059Z,3.01
2022-09-23T01:38:59.188Z,2.99
2022-09-23T01:41:37.484Z,3.01
2022-09-23T01:44:11.269Z,2.99
2022-09-23T01:46:46.378Z,3.01
2022-09-23T01:49:22.037Z,2.95
2022-09-23T01:51:54.859Z,2.95
2022-09-23T01:54:46.243Z,2.93
2022-09-23T01:57:15.708Z,2.93
2022-09-23T01:59:48.567Z,2.92
2022-09-23T02:02:28.336Z,2.89
2022-09-23T02:05:04.088Z,2.91
2022-09-23T02:07:35.395Z,2.89
2022-09-23T02:10:21.593Z,2.87
2022-09-23T02:12:50.213Z,2.81
2022-09-23T02:15:21.133Z,2.81
2022-09-23T02:17:54.287Z,2.79
2022-09-23T02:20:29.556Z,2.75
2022-09-23T02:23:16.629Z,2.77
2022-09-23T02:25:51.115Z,2.72
2022-09-23T02:28:24.072Z,2.72
2022-09-23T02:31:07.311Z,2.72
2022-09-23T02:33:39.257Z,2.68
2022-09-23T02:36:12.495Z,2.68
2022-09-23T02:38:46.588Z,2.62
2022-09-23T02:41:38.974Z,2.60
2022-09-23T02:44:16.294Z,2.58
2022-09-23T02:46:43.600Z,2.57
2022-09-23T02:49:17.478Z,2.57
2022-09-23T02:51:44.709Z,2.51
2022-09-23T02:54:14.909Z,2.51
2022-09-23T02:56:41.567Z,2.50
2022-09-23T02:59:09.478Z,2.47
2022-09-23T03:01:57.925Z,2.44
2022-09-23T03:04:54.749Z,2.44
2022-09-23T03:07:33.119Z,2.44
2022-09-23T03:10:14.614Z,2.42
2022-09-23T03:12:52.845Z,2.40
2022-09-23T03:15:51.605Z,2.37
2022-09-23T03:18:31.684Z,2.38
2022-09-23T03:21:11.446Z,2.38
2022-09-23T03:23:40.558Z,2.36
2022-09-23T03:26:35.346Z,2.34
2022-09-23T03:29:09.355Z,2.33
2022-09-23T03:31:38.715Z,2.33
2022-09-23T03:34:12.628Z,2.30
2022-09-23T03:36:53.292Z,2.27
2022-09-23T03:39:44.366Z,2.23
2022-09-23T03:42:16.941Z,2.20
2022-09-23T03:44:45.544Z,2.21
2022-09-23T03:47:14.522Z,2.19
2022-09-23T03:49:44.387Z,2.23
2022-09-23T03:52:11.157Z,2.21
2022-09-23T03:54:37.626Z,2.19
2022-09-23T03:57:04.281Z,2.17
2022-09-23T03:59:30.913Z,2.11
2022-09-23T04:01:59.500Z,2.09
2022-09-23T04:04:27.518Z,2.09
2022-09-23T04:06:55.171Z,2.07
2022-09-23T04:09:22.802Z,2.02
2022-09-23T04:11:50.526Z,2.03
2022-09-23T04:14:18.648Z,2.02
2022-09-23T04:16:46.174Z,2.02
2022-09-23T04:19:13.413Z,2.00
2022-09-23T04:21:41.325Z,1.96
2022-09-23T04:24:08.563Z,1.98
2022-09-23T04:26:35.990Z,1.92
2022-09-23T04:29:03.402Z,1.90
2022-09-23T04:31:29.868Z,1.92
2022-09-23T04:33:56.333Z,1.89
2022-09-23T04:36:23.034Z,1.87
2022-09-23T04:38:50.186Z,1.87
2022-09-23T04:41:17.765Z,1.87
2022-09-23T04:43:45.462Z,1.87
2022-09-23T04:46:13.822Z,1.86
2022-09-23T04:48:41.600Z,1.87
2022-09-23T04:51:20.252Z,1.86
2022-09-23T04:53:49.680Z,1.85
2022-09-23T04:56:24.454Z,1.86
2022-09-23T04:58:52.174Z,1.83
2022-09-23T05:01:27.462Z,1.85
2022-09-23T05:04:02.283Z,1.86
2022-09-23T05:06:31.422Z,1.89
2022-09-23T05:08:58.804Z,1.93
2022-09-23T05:11:26.073Z,1.93
2022-09-23T05:13:54.521Z,1.96
2022-09-23T05:16:23.181Z,1.95
2022-09-23T05:18:50.780Z,2.00
2022-09-23T05:21:20.184Z,2.03
2022-09-23T05:23:54.984Z,2.09
2022-09-23T05:26:23.496Z,2.11
2022-09-23T05:28:49.917Z,2.11
2022-09-23T05:31:20.455Z,2.13
2022-09-23T05:33:52.859Z,2.13
2022-09-23T05:36:21.130Z,2.19
2022-09-23T05:38:49.744Z,2.23
2022-09-23T05:41:18.258Z,2.29
2022-09-23T05:43:45.199Z,2.37
2022-09-23T05:46:15.396Z,2.45
2022-09-23T05:48:43.006Z,2.55
2022-09-23T05:51:13.545Z,2.66
2022-09-23T05:53:41.621Z,2.75
2022-09-23T05:56:08.232Z,2.92
2022-09-23T05:58:34.731Z,3.06
2022-09-23T06:01:01.150Z,3.18
2022-09-23T06:03:27.645Z,3.37
2022-09-23T06:05:55.265Z,3.54
2022-09-23T06:08:23.664Z,3.71
2022-09-23T06:10:54.403Z,3.88
2022-09-23T06:13:26.002Z,4.06
2022-09-23T06:15:58.172Z,4.23
2022-09-23T06:18:24.665Z,4.40
2022-09-23T06:20:51.477Z,4.76
2022-09-23T06:23:17.842Z,5.38
2022-09-23T06:25:44.197Z,5.58
2022-09-23T06:28:12.138Z,5.58
2022-09-23T06:30:42.490Z,5.58
2022-09-23T06:33:10.011Z,5.60
2022-09-23T06:35:36.416Z,5.72
2022-09-23T06:38:04.497Z,5.83
2022-09-23T06:40:31.288Z,6.02
2022-09-23T06:42:59.290Z,6.34
2022-09-23T06:45:25.942Z,6.41
2022-09-23T06:47:56.475Z,6.56
2022-09-23T06:50:24.379Z,6.73
2022-09-23T06:52:52.222Z,7.22
2022-09-23T06:55:18.653Z,8.01
2022-09-23T06:57:45.044Z,9.01
2022-09-23T07:00:13.177Z,10.25
2022-09-23T07:02:42.111Z,10.61
2022-09-23T07:05:09.439Z,10.58
2022-09-23T07:07:38.188Z,10.18
2022-09-23T07:10:05.873Z,10.28
2022-09-23T07:12:33.398Z,10.28
2022-09-23T07:14:59.767Z,10.37
2022-09-23T07:17:26.920Z,10.48
2022-09-23T07:19:54.931Z,10.56
2022-09-23T07:22:26.386Z,10.99
2022-09-23T07:24:56.681Z,11.51
2022-09-23T07:27:27.955Z,12.57
2022-09-23T07:29:54.993Z,13.86
2022-09-23T07:32:22.935Z,15.03
2022-09-23T07:34:49.670Z,15.64
2022-09-23T07:37:17.363Z,16.18
2022-09-23T07:39:45.025Z,16.73
2022-09-23T07:42:13.189Z,17.24
2022-09-23T07:44:45.633Z,17.69
2022-09-23T07:47:12.006Z,17.85
2022-09-23T07:49:38.442Z,18.41
2022-09-23T07:52:05.096Z,18.60
2022-09-23T07:54:32.137Z,19.12
2022-09-23T07:56:59.757Z,19.32
2022-09-23T07:59:27.208Z,18.62
2022-09-23T08:01:54.845Z,17.96
2022-09-23T08:04:22.859Z,18.17
2022-09-23T08:07:00.778Z,18.91
2022-09-23T08:09:31.853Z,19.71
2022-09-23T08:11:58.446Z,20.57
2022-09-23T08:14:24.909Z,20.97
2022-09-23T08:16:52.241Z,21.14
2022-09-23T08:19:18.837Z,21.40
2022-09-23T08:21:47.379Z,21.72
2022-09-23T08:24:16.936Z,21.42
2022-09-23T08:26:44.741Z,21.77
2022-09-23T08:29:15.861Z,22.20
2022-09-23T08:31:42.783Z,22.74
2022-09-23T08:34:10.735Z,23.12
2022-09-23T08:36:37.819Z,24.10
2022-09-23T08:39:05.201Z,24.47
2022-09-23T08:41:37.341Z,24.86
2022-09-23T08:44:11.907Z,24.47
2022-09-23T08:46:46.472Z,25.26
2022-09-23T08:49:20.426Z,24.73
2022-09-23T08:51:48.466Z,24.38
2022-09-23T08:54:17.701Z,25.24
2022-09-23T08:56:49.082Z,25.51
2022-09-23T08:59:40.402Z,25.54
2022-09-23T09:02:17.819Z,25.47
2022-09-23T09:04:47.636Z,25.03
2022-09-23T09:07:36.376Z,24.92
2022-09-23T09:10:16.592Z,24.11
2022-09-23T09:12:55.132Z,25.26
2022-09-23T09:15:24.958Z,26.26
2022-09-23T09:18:11.393Z,26.04
2022-09-23T09:21:08.442Z,26.02
2022-09-23T09:23:43.041Z,25.37
2022-09-23T09:26:19.547Z,25.88
2022-09-23T09:29:31.250Z,25.92
2022-09-23T09:31:57.639Z,26.70
2022-09-23T09:34:33.538Z,26.90
2022-09-23T09:37:07.142Z,27.27
2022-09-23T09:39:35.610Z,26.97
2022-09-23T09:42:03.635Z,27.56
2022-09-23T09:44:41.673Z,27.59
2022-09-23T09:47:40.532Z,27.73
2022-09-23T09:50:32.858Z,27.33
2022-09-23T09:53:25.517Z,26.97
2022-09-23T09:56:09.884Z,27.21
2022-09-23T09:58:46.900Z,26.02
2022-09-23T10:01:22.083Z,23.79
2022-09-23T10:03:53.044Z,23.38
2022-09-23T10:06:35.653Z,23.38
2022-09-23T10:09:02.103Z,22.79
2022-09-23T10:11:29.480Z,24.52
2022-09-23T10:14:12.663Z,25.77
2022-09-23T10:16:41.429Z,25.05
2022-09-23T10:19:29.207Z,26.28
2022-09-23T10:22:00.228Z,26.52
2022-09-23T10:24:30.483Z,26.06
2022-09-23T10:27:01.674Z,26.35
2022-09-23T10:29:36.722Z,26.61
2022-09-23T10:32:30.676Z,26.29
2022-09-23T10:35:09.281Z,23.96
2022-09-23T10:37:40.558Z,24.52
2022-09-23T10:40:35.412Z,24.00
2022-09-23T10:43:37.880Z,24.37
2022-09-23T10:46:27.298Z,24.86
2022-09-23T10:49:18.592Z,24.73
2022-09-23T10:51:51.685Z,24.99
2022-09-23T10:54:51.107Z,23.28
2022-09-23T10:57:45.032Z,23.48
2022-09-23T11:00:17.713Z,23.73
2022-09-23T11:03:25.362Z,22.46
2022-09-23T11:06:16.750Z,22.44
2022-09-23T11:08:51.363Z,23.23
2022-09-23T11:11:26.679Z,23.66
2022-09-23T11:14:17.757Z,23.23
2022-09-23T11:17:14.561Z,23.65
2022-09-23T11:20:09.703Z,24.21
2022-09-23T11:23:05.635Z,24.28
2022-09-23T11:25:34.768Z,25.23
2022-09-23T11:28:23.470Z,25.13
2022-09-23T11:31:10.042Z,25.26
2022-09-23T11:34:01.645Z,24.27
2022-09-23T11:36:36.361Z,23.70
2022-09-23T11:39:17.932Z,23.60
2022-09-23T11:41:44.900Z,24.07
2022-09-23T11:44:23.464Z,24.92
2022-09-23T11:46:59.423Z,25.05
2022-09-23T11:49:45.996Z,25.33
2022-09-23T11:52:19.573Z,25.68
2022-09-23T11:55:07.710Z,24.31
2022-09-23T11:57:48.501Z,24.49
2022-09-23T12:00:19.799Z,25.06
2022-09-23T12:03:00.365Z,25.38
2022-09-23T12:05:35.330Z,25.33
2022-09-23T12:08:10.334Z,25.34
2022-09-23T12:10:54.737Z,25.89
2022-09-23T12:13:44.156Z,25.89
2022-09-23T12:16:16.817Z,26.31
2022-09-23T12:18:55.351Z,25.73
2022-09-23T12:21:50.767Z,25.60
2022-09-23T12:24:20.586Z,24.85
2022-09-23T12:26:53.191Z,25.63
2022-09-23T12:29:20.422Z,23.65
2022-09-23T12:31:48.137Z,24.64
2022-09-23T12:34:29.937Z,25.48
2022-09-23T12:37:06.087Z,25.80
2022-09-23T12:39:38.531Z,26.18
2022-09-23T12:42:10.859Z,26.55
2022-09-23T12:44:41.925Z,26.42
2022-09-23T12:47:14.210Z,26.01
2022-09-23T12:49:42.706Z,25.98
2022-09-23T12:52:11.834Z,26.52
2022-09-23T12:54:42.750Z,26.46
2022-09-23T12:57:12.976Z,25.80
2022-09-23T12:59:52.359Z,25.57
2022-09-23T13:02:40.889Z,24.83
2022-09-23T13:05:43.695Z,24.24
2022-09-23T13:08:19.445Z,24.34
2022-09-23T13:10:54.846Z,24.69
2022-09-23T13:13:35.643Z,25.28
2022-09-23T13:16:29.306Z,25.44
2022-09-23T13:19:00.765Z,26.01
2022-09-23T13:21:42.312Z,25.95
2022-09-23T13:24:31.041Z,24.07
2022-09-23T13:27:06.708Z,24.16
2022-09-23T13:29:50.085Z,24.62
2022-09-23T13:32:20.231Z,25.07
2022-09-23T13:34:57.925Z,25.36
2022-09-23T13:37:31.320Z,25.36
2022-09-23T13:40:19.804Z,25.37
2022-09-23T13:43:11.818Z,25.20
2022-09-23T13:45:43.007Z,24.55
2022-09-23T13:48:15.140Z,23.94
2022-09-23T13:50:49.293Z,23.19
2022-09-23T13:53:34.047Z,23.12
2022-09-23T13:56:05.787Z,23.53
2022-09-23T13:58:34.369Z,23.76
2022-09-23T14:01:01.245Z,23.94
2022-09-23T14:03:36.885Z,23.28
2022-09-23T14:06:14.679Z,23.48
2022-09-23T14:08:45.055Z,22.90
2022-09-23T14:11:31.947Z,23.05
2022-09-23T14:14:00.835Z,23.39
2022-09-23T14:16:28.145Z,23.59
2022-09-23T14:18:59.831Z,23.62
2022-09-23T14:21:37.179Z,23.70
2022-09-23T14:24:20.018Z,23.46
2022-09-23T14:27:08.645Z,23.41
2022-09-23T14:29:40.401Z,22.88
2022-09-23T14:32:17.309Z,22.47
2022-09-23T14:35:04.416Z,22.21
2022-09-23T14:37:55.539Z,22.29
2022-09-23T14:40:26.161Z,22.19
2022-09-23T14:42:57.711Z,21.72
2022-09-23T14:45:26.634Z,21.37
2022-09-23T14:48:22.447Z,21.31
2022-09-23T14:51:16.094Z,20.84
2022-09-23T14:53:46.285Z,20.38
2022-09-23T14:56:18.755Z,19.74
2022-09-23T14:58:52.406Z,19.69
2022-09-23T15:01:31.324Z,19.37
2022-09-23T15:03:59.659Z,19.06
2022-09-23T15:06:27.219Z,18.68
2022-09-23T15:08:55.576Z,18.52
2022-09-23T15:11:22.529Z,18.27
2022-09-23T15:13:52.697Z,18.06
2022-09-23T15:16:30.102Z,17.92
2022-09-23T15:18:59.751Z,17.75
2022-09-23T15:21:42.704Z,17.63
2022-09-23T15:24:35.867Z,17.49
2022-09-23T15:27:02.758Z,17.48
2022-09-23T15:29:29.987Z,17.34
2022-09-23T15:31:56.728Z,17.20
2022-09-23T15:34:23.146Z,17.12
2022-09-23T15:36:49.628Z,17.06
2022-09-23T15:39:16.043Z,16.93
2022-09-23T15:41:43.341Z,16.84
2022-09-23T15:44:14.740Z,16.73
2022-09-23T15:46:49.906Z,16.64
2022-09-23T15:49:26.097Z,16.57
2022-09-23T15:51:53.295Z,16.50
2022-09-23T15:54:19.785Z,16.39
2022-09-23T15:56:46.200Z,16.25
2022-09-23T15:59:13.564Z,16.21
2022-09-23T16:01:42.097Z,16.09
2022-09-23T16:04:09.862Z,16.04
2022-09-23T16:06:37.521Z,15.94
2022-09-23T16:09:03.989Z,15.85
2022-09-23T16:11:34.441Z,15.77
2022-09-23T16:14:01.262Z,15.67
2022-09-23T16:16:28.283Z,15.57
2022-09-23T16:18:54.841Z,15.47
2022-09-23T16:21:24.294Z,15.39
2022-09-23T16:23:51.407Z,15.29
2022-09-23T16:26:20.694Z,15.16
2022-09-23T16:28:48.937Z,15.07
2022-09-23T16:31:16.295Z,14.99
2022-09-23T16:33:43.869Z,14.88
2022-09-23T16:36:17.648Z,14.85
2022-09-23T16:38:44.383Z,14.78
2022-09-23T16:41:11.615Z,14.75
2022-09-23T16:43:39.724Z,14.68
2022-09-23T16:46:09.009Z,14.58
2022-09-23T16:48:40.718Z,14.48
2022-09-23T16:51:15.753Z,14.37
2022-09-23T16:53:42.688Z,14.24
2022-09-23T16:56:11.376Z,14.14
2022-09-23T16:58:38.911Z,13.99
2022-09-23T17:01:25.959Z,13.84
2022-09-23T17:03:53.196Z,13.67
2022-09-23T17:06:19.579Z,13.52
2022-09-23T17:08:48.271Z,13.35
2022-09-23T17:11:16.412Z,13.25
2022-09-23T17:13:44.210Z,13.12
2022-09-23T17:16:20.914Z,12.98
2022-09-23T17:18:47.341Z,12.84
2022-09-23T17:21:13.792Z,12.71
2022-09-23T17:23:40.233Z,12.59
2022-09-23T17:26:09.733Z,12.44
2022-09-23T17:28:36.344Z,12.30
2022-09-23T17:31:06.420Z,12.18
2022-09-23T17:33:37.352Z,12.08
2022-09-23T17:36:09.151Z,11.94
2022-09-23T17:38:35.998Z,11.82
2022-09-23T17:41:02.521Z,11.75
2022-09-23T17:43:31.360Z,11.60
2022-09-23T17:46:06.338Z,11.47
2022-09-23T17:48:34.840Z,11.31
2022-09-23T17:51:04.546Z,11.23
2022-09-23T17:53:35.302Z,11.09
2022-09-23T17:56:04.541Z,10.97
2022-09-23T17:58:33.476Z,10.89
2022-09-23T18:00:59.930Z,10.82
2022-09-23T18:03:27.657Z,10.73
2022-09-23T18:05:54.591Z,10.65
2022-09-23T18:08:21.285Z,10.58
2022-09-23T18:10:47.681Z,10.55
2022-09-23T18:13:14.505Z,10.46
2022-09-23T18:15:40.963Z,10.41
2022-09-23T18:18:07.555Z,10.38
2022-09-23T18:20:34.085Z,10.31
2022-09-23T18:23:00.458Z,10.27
2022-09-23T18:25:39.048Z,10.27
2022-09-23T18:28:06.155Z,10.27
2022-09-23T18:30:33.347Z,10.25
2022-09-23T18:32:59.854Z,10.22
2022-09-23T18:35:26.510Z,10.21
2022-09-23T18:37:52.907Z,10.20
2022-09-23T18:40:19.350Z,10.13
2022-09-23T18:42:45.794Z,10.10
2022-09-23T18:45:12.198Z,10.01
2022-09-23T18:47:57.352Z,9.93
2022-09-23T18:50:43.619Z,9.87
2022-09-23T18:53:10.443Z,9.79
2022-09-23T18:55:37.153Z,9.72
2022-09-23T18:58:04.075Z,9.64
2022-09-23T19:00:30.510Z,9.59
2022-09-23T19:02:57.591Z,9.52
2022-09-23T19:05:24.000Z,9.47
2022-09-23T19:07:51.268Z,9.39
2022-09-23T19:10:19.149Z,9.35
2022-09-23T19:12:46.704Z,9.33
2022-09-23T19:15:14.095Z,9.28
2022-09-23T19:17:40.451Z,9.22
2022-09-23T19:20:07.543Z,9.21
2022-09-23T19:22:34.497Z,9.19
2022-09-23T19:25:00.872Z,9.21
2022-09-23T19:27:27.261Z,9.22
2022-09-23T19:29:53.768Z,9.22
2022-09-23T19:32:21.072Z,9.26
2022-09-23T19:34:47.836Z,9.28
2022-09-23T19:37:14.431Z,9.26
2022-09-23T19:39:40.861Z,9.25
2022-09-23T19:42:07.640Z,9.24
2022-09-23T19:44:37.664Z,9.21
2022-09-23T19:47:04.077Z,9.19
2022-09-23T19:49:31.017Z,9.16
2022-09-23T19:51:57.446Z,9.19
2022-09-23T19:54:26.779Z,9.16
2022-09-23T19:56:53.283Z,9.16
2022-09-23T19:59:19.803Z,9.15
2022-09-23T20:01:48.003Z,9.12
2022-09-23T20:04:15.658Z,9.12
2022-09-23T20:06:42.323Z,9.14
2022-09-23T20:09:08.766Z,9.12
2022-09-23T20:11:35.745Z,9.11
2022-09-23T20:14:04.612Z,9.11
2022-09-23T20:16:34.094Z,9.10
2022-09-23T20:19:01.877Z,9.08
2022-09-23T20:21:29.375Z,9.08
2022-09-23T20:23:56.838Z,9.08
2022-09-23T20:26:41.872Z,9.07
2022-09-23T20:29:08.948Z,9.02
2022-09-23T20:31:35.483Z,8.95
2022-09-23T20:34:05.490Z,8.91
2022-09-23T20:36:32.906Z,8.84
2022-09-23T20:39:01.602Z,8.81
2022-09-23T20:41:29.711Z,8.75
2022-09-23T20:43:59.324Z,8.74
2022-09-23T20:46:26.686Z,8.68
2022-09-23T20:48:54.236Z,8.64
2022-09-23T20:51:20.913Z,8.67
2022-09-23T20:53:53.979Z,8.63
2022-09-23T20:56:21.494Z,8.60
2022-09-23T20:58:48.653Z,8.56
2022-09-23T21:01:15.788Z,8.57
2022-09-23T21:03:44.760Z,8.54
2022-09-23T21:06:13.834Z,8.52
2022-09-23T21:08:41.227Z,8.54
2022-09-23T21:11:14.847Z,8.53
2022-09-23T21:13:47.053Z,8.53
2022-09-23T21:16:17.943Z,8.53
2022-09-23T21:18:45.035Z,8.54
2022-09-23T21:21:14.001Z,8.59
2022-09-23T21:23:41.700Z,8.57
2022-09-23T21:26:10.935Z,8.57
2022-09-23T21:28:48.752Z,8.56
2022-09-23T21:31:36.287Z,8.60
2022-09-23T21:34:08.597Z,8.60
2022-09-23T21:36:37.279Z,8.61
2022-09-23T21:39:09.082Z,8.60
2022-09-23T21:41:35.792Z,8.61
2022-09-23T21:44:04.521Z,8.63
2022-09-23T21:46:33.517Z,8.60
2022-09-23T21:49:01.929Z,8.59
2022-09-23T21:51:38.524Z,8.61
2022-09-23T21:54:05.680Z,8.61
2022-09-23T21:56:35.072Z,8.61
2022-09-23T21:59:02.100Z,8.59
2022-09-23T22:01:33.123Z,8.63
2022-09-23T22:04:07.795Z,8.61
2022-09-23T22:06:37.403Z,8.63
2022-09-23T22:09:10.995Z,8.63
2022-09-23T22:11:57.559Z,8.64
2022-09-23T22:14:25.737Z,8.64
2022-09-23T22:16:55.886Z,8.65
2022-09-23T22:19:25.942Z,8.65
2022-09-23T22:21:53.583Z,8.68
2022-09-23T22:24:20.205Z,8.70
2022-09-23T22:26:47.026Z,8.68
2022-09-23T22:29:34.102Z,8.71
2022-09-23T22:32:21.017Z,8.68
2022-09-23T22:34:51.472Z,8.71
2022-09-23T22:37:27.750Z,8.71
2022-09-23T22:39:54.793Z,8.70
2022-09-23T22:42:22.231Z,8.71
2022-09-23T22:44:49.284Z,8.68
2022-09-23T22:47:17.539Z,8.71
2022-09-23T22:49:44.012Z,8.71
2022-09-23T22:52:11.209Z,8.73
2022-09-23T22:54:37.928Z,8.74
2022-09-23T22:57:05.771Z,8.74
2022-09-23T22:59:32.163Z,8.78
2022-09-23T23:02:02.851Z,8.80
2022-09-23T23:04:30.032Z,8.80
2022-09-23T23:06:57.956Z,8.80
2022-09-23T23:09:24.365Z,8.81
2022-09-23T23:11:50.770Z,8.83
2022-09-23T23:14:18.082Z,8.77
2022-09-23T23:16:45.980Z,8.84
2022-09-23T23:19:16.473Z,8.84
2022-09-23T23:21:43.837Z,8.85
2022-09-23T23:24:18.613Z,8.85
2022-09-23T23:26:45.312Z,8.87
2022-09-23T23:29:13.672Z,8.89
2022-09-23T23:31:40.789Z,8.89
2022-09-23T23:34:10.587Z,8.89
2022-09-23T23:36:37.369Z,8.89
2022-09-23T23:39:04.008Z,8.92
2022-09-23T23:41:31.216Z,8.92
2022-09-23T23:44:00.196Z,8.92
2022-09-23T23:46:28.671Z,8.92
2022-09-23T23:48:56.997Z,8.92
2022-09-23T23:51:26.228Z,8.94
2022-09-23T23:53:53.901Z,8.91
2022-09-23T23:56:23.332Z,8.92
2022-09-23T23:58:57.947Z,8.92
